Time;durP1;ratioP1;P1;durP2;ratioP2;P2;SDS_P1;SDS_P2;PMS_P1;PMS_P2;Temp;Humidity;BMP_temperature;BMP_pressure;BME280_temperature;BME280_humidity;BME280_pressure;Samples;Min_cycle;Max_cycle;Signal;HPM_P1;HPM_P2
2023/03/06 00:00:50;;;;;;;;;;;;;;;0.79;65.06;96146.23;109037;1250;97139;-72
2023/03/06 00:03:19;;;;;;;;;;;;;;;0.81;65.15;96145.21;109104;1250;104174;-74
2023/03/06 00:05:47;;;;;;;;;;;;;;;0.83;65.13;96141.41;109040;1250;101263;-72
2023/03/06 00:08:15;;;;;;;;;;;;;;;0.86;65.17;96139.33;109026;1250;99555;-72
2023/03/06 00:10:43;;;;;;;;;;;;;;;0.86;65.24;96137.30;109008;1249;96848;-72
2023/03/06 00:13:13;;;;;;;;;;;;;;;0.88;65.09;96138.48;109049;1250;96931;-72
2023/03/06 00:15:41;;;;;;;;;;;;;;;0.91;64.79;96141.48;109009;1250;104783;-71
2023/03/06 00:18:09;;;;;;;;;;;;;;;0.94;64.79;96142.59;109032;1250;101218;-73
2023/03/06 00:20:39;;;;;;;;;;;;;;;0.96;64.78;96140.98;109021;1250;100239;-72
2023/03/06 00:23:08;;;;;;;;;;;;;;;0.95;64.66;96138.15;109066;1250;97162;-72
2023/03/06 00:25:37;;;;;;;;;;;;;;;0.97;64.65;96136.23;109085;1250;97065;-72
2023/03/06 00:28:06;;;;;;;;;;;;;;;0.97;64.41;96137.14;109057;1250;105033;-75
2023/03/06 00:30:34;;;;;;;;;;;;;;;0.98;64.39;96140.70;108998;1249;101340;-72
2023/03/06 00:33:02;;;;;;;;;;;;;;;1.00;64.33;96138.52;109036;1250;99639;-72
2023/03/06 00:35:30;;;;;;;;;;;;;;;1.01;64.35;96140.46;109011;1249;96919;-72
2023/03/06 00:37:59;;;;;;;;;;;;;;;1.03;64.37;96140.05;109053;1249;96992;-72
2023/03/06 00:40:27;;;;;;;;;;;;;;;1.02;64.36;96142.29;109099;1250;105724;-74
2023/03/06 00:42:55;;;;;;;;;;;;;;;1.03;64.17;96141.29;109016;1250;101769;-72
2023/03/06 00:45:23;;;;;;;;;;;;;;;1.04;64.06;96141.14;108994;1249;99620;-74
2023/03/06 00:47:51;;;;;;;;;;;;;;;1.06;64.30;96143.05;108996;1250;96897;-72
2023/03/06 00:50:19;;;;;;;;;;;;;;;1.07;64.15;96143.63;109055;1249;96966;-71
2023/03/06 00:52:47;;;;;;;;;;;;;;;1.07;64.21;96140.15;109018;1250;104569;-72
2023/03/06 00:55:16;;;;;;;;;;;;;;;1.02;64.40;96136.34;109011;1250;101270;-74
2023/03/06 00:57:44;;;;;;;;;;;;;;;0.94;64.59;96137.92;108997;1250;99801;-72
2023/03/06 01:00:13;;;;;;;;;;;;;;;0.92;64.62;96137.88;109035;1250;96894;-73
2023/03/06 01:02:41;;;;;;;;;;;;;;;0.93;64.75;96138.84;109062;1249;96988;-72
2023/03/06 01:05:10;;;;;;;;;;;;;;;0.93;64.54;96138.80;109021;1250;104984;-72
2023/03/06 01:07:38;;;;;;;;;;;;;;;0.95;64.65;96138.23;108780;1250;100556;-73
2023/03/06 01:10:06;;;;;;;;;;;;;;;0.96;64.82;96136.45;108734;1250;99171;-72
2023/03/06 01:12:35;;;;;;;;;;;;;;;0.97;64.98;96137.45;109070;1250;96957;-74
2023/03/06 01:15:03;;;;;;;;;;;;;;;0.97;65.15;96135.66;109032;1249;97029;-72
2023/03/06 01:17:31;;;;;;;;;;;;;;;0.96;65.25;96135.46;108701;1254;105400;-72
2023/03/06 01:19:59;;;;;;;;;;;;;;;0.98;65.19;96142.13;108792;1252;101654;-75
2023/03/06 01:22:27;;;;;;;;;;;;;;;0.93;65.51;96149.76;108555;1251;99120;-71
2023/03/06 01:24:55;;;;;;;;;;;;;;;0.87;65.90;96156.92;108885;1251;97273;-72
2023/03/06 01:27:23;;;;;;;;;;;;;;;0.83;66.21;96160.04;108937;1251;96945;-71
2023/03/06 01:29:51;;;;;;;;;;;;;;;0.82;66.52;96161.64;108932;1251;104648;-74
2023/03/06 01:32:20;;;;;;;;;;;;;;;0.78;66.83;96158.35;108934;1251;101610;-72
2023/03/06 01:34:48;;;;;;;;;;;;;;;0.72;67.10;96161.39;108865;1251;99601;-74
2023/03/06 01:37:16;;;;;;;;;;;;;;;0.62;67.34;96153.90;108833;1253;97004;-74
2023/03/06 01:39:44;;;;;;;;;;;;;;;0.56;67.60;96150.09;108695;1251;97083;-72
2023/03/06 01:42:12;;;;;;;;;;;;;;;0.53;67.78;96148.75;108719;1251;104678;-74
2023/03/06 01:44:58;;;;;;;;;;;;;;;0.51;68.01;96146.97;108921;1251;101691;-72
2023/03/06 01:47:26;;;;;;;;;;;;;;;0.45;68.12;96145.20;108904;1251;100122;-72
2023/03/06 01:49:56;;;;;;;;;;;;;;;0.42;68.50;96142.61;108682;1251;97065;-72
2023/03/06 01:52:29;;;;;;;;;;;;;;;0.34;68.81;96146.79;108979;1251;97006;-72
2023/03/06 01:55:00;;;;;;;;;;;;;;;0.28;69.09;96151.11;108874;1251;105046;-72
2023/03/06 01:57:38;;;;;;;;;;;;;;;0.26;69.41;96150.13;108908;1251;101186;-72
2023/03/06 02:00:10;;;;;;;;;;;;;;;0.25;69.85;96149.47;108823;1251;99918;-73
2023/03/06 02:02:39;;;;;;;;;;;;;;;0.23;70.14;96146.79;108912;1251;96855;-71
2023/03/06 02:05:08;;;;;;;;;;;;;;;0.23;70.31;96146.75;108919;1251;96849;-71
2023/03/06 02:07:37;;;;;;;;;;;;;;;0.23;70.38;96146.35;108848;1253;104840;-72
2023/03/06 02:10:06;;;;;;;;;;;;;;;0.23;70.54;96148.80;108805;1250;100499;-73
2023/03/06 02:12:34;;;;;;;;;;;;;;;0.24;70.57;96148.72;108945;1251;99427;-73
2023/03/06 02:15:02;;;;;;;;;;;;;;;0.25;70.73;96142.17;108880;1251;96847;-72
2023/03/06 02:17:30;;;;;;;;;;;;;;;0.24;71.08;96144.23;109008;1249;96998;-72
2023/03/06 02:20:04;;;;;;;;;;;;;;;0.25;71.12;96145.71;108703;1250;104679;-72
2023/03/06 02:22:36;;;;;;;;;;;;;;;0.28;71.16;96142.75;108995;1250;101362;-73
2023/03/06 02:25:08;;;;;;;;;;;;;;;0.30;71.24;96140.02;109014;1249;99696;-72
2023/03/06 02:27:36;;;;;;;;;;;;;;;0.30;71.13;96135.80;108938;1249;96916;-72
2023/03/06 02:30:09;;;;;;;;;;;;;;;0.27;71.30;96126.63;108723;1251;96930;-72
2023/03/06 02:32:37;;;;;;;;;;;;;;;0.27;71.48;96132.40;109038;1249;104659;-73
2023/03/06 02:35:06;;;;;;;;;;;;;;;0.31;71.59;96133.61;108998;1249;101362;-70
2023/03/06 02:37:34;;;;;;;;;;;;;;;0.35;71.71;96133.70;109026;1250;100123;-72
2023/03/06 02:40:07;;;;;;;;;;;;;;;0.36;71.58;96128.75;108932;1250;97216;-73
2023/03/06 02:42:35;;;;;;;;;;;;;;;0.35;71.49;96128.64;109021;1249;96970;-72
2023/03/06 02:45:05;;;;;;;;;;;;;;;0.33;71.36;96129.45;109065;1250;105337;-73
2023/03/06 02:47:33;;;;;;;;;;;;;;;0.32;71.48;96131.38;109034;1250;101298;-74
2023/03/06 02:50:01;;;;;;;;;;;;;;;0.33;71.63;96128.59;108955;1250;99906;-72
2023/03/06 02:52:29;;;;;;;;;;;;;;;0.34;71.62;96128.12;108758;1250;96976;-72
2023/03/06 02:54:57;;;;;;;;;;;;;;;0.35;71.61;96127.79;108698;1255;97999;-72
2023/03/06 02:57:25;;;;;;;;;;;;;;;0.35;71.55;96129.91;109022;1250;104492;-73
2023/03/06 02:59:53;;;;;;;;;;;;;;;0.34;71.45;96130.58;109023;1249;101429;-72
2023/03/06 03:02:21;;;;;;;;;;;;;;;0.32;71.36;96131.52;108949;1250;99590;-74
2023/03/06 03:04:49;;;;;;;;;;;;;;;0.29;71.18;96137.17;108723;1254;97007;-74
2023/03/06 03:07:17;;;;;;;;;;;;;;;0.25;71.09;96135.64;109010;1249;97092;-72
2023/03/06 03:09:45;;;;;;;;;;;;;;;0.23;70.98;96135.23;108973;1249;105028;-72
2023/03/06 03:12:13;;;;;;;;;;;;;;;0.20;70.96;96135.19;109018;1250;100411;-73
2023/03/06 03:14:41;;;;;;;;;;;;;;;0.20;70.86;96136.41;109009;1249;99354;-72
2023/03/06 03:17:09;;;;;;;;;;;;;;;0.18;71.02;96134.74;109014;1249;96975;-74
2023/03/06 03:19:37;;;;;;;;;;;;;;;0.14;71.06;96130.41;109036;1249;97079;-72
2023/03/06 03:22:06;;;;;;;;;;;;;;;0.08;71.07;96126.44;109030;1250;103843;-73
2023/03/06 03:24:34;;;;;;;;;;;;;;;0.05;71.11;96128.38;109007;1250;101047;-75
2023/03/06 03:27:02;;;;;;;;;;;;;;;0.00;71.12;96133.13;108951;1250;99816;-73
2023/03/06 03:29:30;;;;;;;;;;;;;;;-0.03;70.73;96133.44;109023;1251;96984;-75
2023/03/06 03:31:58;;;;;;;;;;;;;;;-0.02;70.83;96130.69;108693;1251;97116;-72
2023/03/06 03:34:26;;;;;;;;;;;;;;;-0.05;70.96;96126.82;108709;1255;104922;-72
2023/03/06 03:36:54;;;;;;;;;;;;;;;-0.11;71.11;96118.38;109045;1250;101247;-72
2023/03/06 03:39:22;;;;;;;;;;;;;;;-0.14;71.23;96115.56;108964;1250;100140;-74
2023/03/06 03:41:51;;;;;;;;;;;;;;;-0.16;71.26;96115.44;108732;1250;97026;-72
2023/03/06 03:44:19;;;;;;;;;;;;;;;-0.18;71.38;96116.99;109019;1249;97236;-74
2023/03/06 03:46:47;;;;;;;;;;;;;;;-0.19;71.39;96113.75;109009;1249;103845;-74
2023/03/06 03:49:15;;;;;;;;;;;;;;;-0.23;71.30;96116.36;109011;1249;101455;-74
2023/03/06 03:51:44;;;;;;;;;;;;;;;-0.28;71.38;96114.82;108739;1250;99046;-74
2023/03/06 03:54:12;;;;;;;;;;;;;;;-0.30;71.53;96114.36;108987;1250;96908;-72
2023/03/06 03:56:40;;;;;;;;;;;;;;;-0.31;71.54;96111.09;109091;1250;96908;-74
2023/03/06 03:59:08;;;;;;;;;;;;;;;-0.32;71.63;96110.92;109006;1250;104536;-71
2023/03/06 04:01:36;;;;;;;;;;;;;;;-0.34;71.74;96113.73;109019;1249;101525;-72
2023/03/06 04:04:04;;;;;;;;;;;;;;;-0.35;71.85;96112.98;109003;1249;100190;-72
2023/03/06 04:06:32;;;;;;;;;;;;;;;-0.36;71.95;96113.42;109015;1249;96922;-70
2023/03/06 04:09:00;;;;;;;;;;;;;;;-0.36;71.97;96114.08;109020;1250;97025;-71
2023/03/06 04:11:28;;;;;;;;;;;;;;;-0.35;72.00;96116.14;108729;1250;104650;-73
2023/03/06 04:13:57;;;;;;;;;;;;;;;-0.35;72.23;96117.36;108751;1250;101472;-72
2023/03/06 04:16:25;;;;;;;;;;;;;;;-0.34;72.18;96116.07;108954;1250;99792;-72
2023/03/06 04:18:53;;;;;;;;;;;;;;;-0.33;72.24;96113.60;108950;1249;96877;-72
2023/03/06 04:21:21;;;;;;;;;;;;;;;-0.30;72.39;96112.84;109044;1249;96975;-72
2023/03/06 04:23:49;;;;;;;;;;;;;;;-0.29;72.42;96114.79;109053;1250;104577;-72
2023/03/06 04:26:17;;;;;;;;;;;;;;;-0.28;72.38;96114.52;109026;1249;101537;-74
2023/03/06 04:28:45;;;;;;;;;;;;;;;-0.27;72.37;96115.61;109019;1250;99595;-74
2023/03/06 04:31:13;;;;;;;;;;;;;;;-0.28;72.52;96114.82;108965;1249;97177;-72
2023/03/06 04:33:41;;;;;;;;;;;;;;;-0.30;72.55;96117.94;109005;1249;96979;-74
2023/03/06 04:36:17;;;;;;;;;;;;;;;-0.30;72.57;96113.10;109001;1250;104906;-75
2023/03/06 04:38:45;;;;;;;;;;;;;;;-0.29;72.49;96108.63;109051;1250;101574;-72
2023/03/06 04:41:13;;;;;;;;;;;;;;;-0.29;72.60;96108.02;109028;1249;99895;-73
2023/03/06 04:43:41;;;;;;;;;;;;;;;-0.28;72.52;96109.38;109054;1249;97238;-72
2023/03/06 04:46:10;;;;;;;;;;;;;;;-0.27;72.58;96109.31;109057;1249;96994;-72
2023/03/06 04:48:38;;;;;;;;;;;;;;;-0.26;72.55;96108.41;108671;1251;106059;-72
2023/03/06 04:51:06;;;;;;;;;;;;;;;-0.24;72.58;96103.49;108762;1249;100099;-74
2023/03/06 04:53:34;;;;;;;;;;;;;;;-0.24;72.55;96104.15;108951;1250;100015;-72
2023/03/06 04:56:02;;;;;;;;;;;;;;;-0.25;72.54;96105.09;108951;1250;96854;-72
2023/03/06 04:58:30;;;;;;;;;;;;;;;-0.24;72.57;96103.41;109052;1250;97815;-71
2023/03/06 05:00:58;;;;;;;;;;;;;;;-0.24;72.66;96093.16;109012;1250;104879;-74
2023/03/06 05:03:26;;;;;;;;;;;;;;;-0.27;72.59;96092.07;109022;1249;101441;-76
2023/03/06 05:05:54;;;;;;;;;;;;;;;-0.28;72.76;96098.74;109007;1250;99510;-72
2023/03/06 05:08:22;;;;;;;;;;;;;;;-0.28;72.64;96099.79;108729;1250;96983;-74
2023/03/06 05:10:58;;;;;;;;;;;;;;;-0.28;72.68;96095.23;109013;1249;97032;-75
2023/03/06 05:13:27;;;;;;;;;;;;;;;-0.29;72.65;96092.80;109008;1250;105020;-73
2023/03/06 05:15:55;;;;;;;;;;;;;;;-0.28;72.84;96094.70;109038;1250;100276;-72
2023/03/06 05:18:23;;;;;;;;;;;;;;;-0.27;72.63;96101.09;108642;1251;100257;-72
2023/03/06 05:20:51;;;;;;;;;;;;;;;-0.27;72.59;96107.65;108884;1251;96983;-72
2023/03/06 05:23:19;;;;;;;;;;;;;;;-0.29;72.55;96104.31;108650;1251;97224;-72
2023/03/06 05:25:47;;;;;;;;;;;;;;;-0.32;72.52;96105.55;108894;1251;104981;-74
2023/03/06 05:28:15;;;;;;;;;;;;;;;-0.34;72.49;96102.24;108942;1251;101246;-72
2023/03/06 05:30:43;;;;;;;;;;;;;;;-0.33;72.48;96101.67;108876;1251;99608;-74
2023/03/06 05:33:11;;;;;;;;;;;;;;;-0.34;72.60;96104.23;108843;1251;96917;-71
2023/03/06 05:35:39;;;;;;;;;;;;;;;-0.34;72.60;96108.15;108895;1251;96941;-72
2023/03/06 05:38:07;;;;;;;;;;;;;;;-0.34;72.52;96104.93;108864;1251;105208;-72
2023/03/06 05:40:35;;;;;;;;;;;;;;;-0.33;72.57;96104.49;108890;1251;101419;-72
2023/03/06 05:43:03;;;;;;;;;;;;;;;-0.32;72.61;96105.39;108856;1251;100013;-72
2023/03/06 05:45:31;;;;;;;;;;;;;;;-0.30;72.45;96109.75;108827;1251;97255;-72
2023/03/06 05:47:59;;;;;;;;;;;;;;;-0.29;72.27;96104.95;108930;1251;97064;-75
2023/03/06 05:50:27;;;;;;;;;;;;;;;-0.29;72.33;96100.99;108972;1251;104701;-72
2023/03/06 05:52:55;;;;;;;;;;;;;;;-0.29;72.22;96106.30;108919;1251;101354;-71
2023/03/06 05:55:23;;;;;;;;;;;;;;;-0.28;72.21;96108.29;108872;1251;99877;-72
2023/03/06 05:57:51;;;;;;;;;;;;;;;-0.27;72.23;96110.64;108933;1251;96899;-72
2023/03/06 06:00:20;;;;;;;;;;;;;;;-0.25;72.12;96115.77;108981;1251;96979;-71
2023/03/06 06:02:48;;;;;;;;;;;;;;;-0.24;72.06;96121.94;108883;1251;105021;-73
2023/03/06 06:05:16;;;;;;;;;;;;;;;-0.23;72.09;96122.59;108902;1251;101714;-74
2023/03/06 06:07:44;;;;;;;;;;;;;;;-0.21;72.03;96123.97;108876;1251;100076;-75
2023/03/06 06:10:12;;;;;;;;;;;;;;;-0.21;71.99;96123.38;108901;1251;97119;-72
2023/03/06 06:12:41;;;;;;;;;;;;;;;-0.22;71.93;96121.06;108963;1251;96972;-74
2023/03/06 06:15:09;;;;;;;;;;;;;;;-0.20;71.95;96120.41;108942;1250;103463;-72
2023/03/06 06:17:37;;;;;;;;;;;;;;;-0.16;71.90;96117.15;108994;1250;101473;-71
2023/03/06 06:20:05;;;;;;;;;;;;;;;-0.12;71.95;96115.99;108981;1251;99881;-74
2023/03/06 06:22:35;;;;;;;;;;;;;;;-0.07;71.95;96114.70;108585;1251;96976;-72
2023/03/06 06:25:04;;;;;;;;;;;;;;;-0.03;71.92;96113.35;109031;1250;97841;-73
2023/03/06 06:27:32;;;;;;;;;;;;;;;0.02;71.62;96116.52;109009;1250;104833;-72
2023/03/06 06:30:00;;;;;;;;;;;;;;;0.06;71.53;96118.79;108691;1250;102674;-73
2023/03/06 06:32:28;;;;;;;;;;;;;;;0.11;71.28;96122.13;108717;1249;99948;-72
2023/03/06 06:34:56;;;;;;;;;;;;;;;0.17;71.24;96119.49;109023;1249;96847;-71
2023/03/06 06:37:24;;;;;;;;;;;;;;;0.23;71.07;96113.27;108708;1251;97083;-71
2023/03/06 06:39:52;;;;;;;;;;;;;;;0.27;70.94;96113.86;109024;1250;105376;-74
2023/03/06 06:42:20;;;;;;;;;;;;;;;0.32;70.96;96117.55;109029;1250;101421;-71
2023/03/06 06:44:49;;;;;;;;;;;;;;;0.33;70.65;96116.48;109042;1250;100108;-72
2023/03/06 06:47:17;;;;;;;;;;;;;;;0.34;70.40;96118.33;108631;1251;96885;-72
2023/03/06 06:49:45;;;;;;;;;;;;;;;0.38;70.28;96118.69;108819;1251;97445;-71
2023/03/06 06:52:13;;;;;;;;;;;;;;;0.41;70.31;96120.78;109005;1250;104821;-72
2023/03/06 06:54:41;;;;;;;;;;;;;;;0.44;70.40;96119.70;109004;1250;101517;-72
2023/03/06 06:57:10;;;;;;;;;;;;;;;0.50;70.31;96117.21;108999;1251;100119;-71
2023/03/06 06:59:38;;;;;;;;;;;;;;;0.55;70.22;96118.20;108939;1250;96918;-71
2023/03/06 07:02:06;;;;;;;;;;;;;;;0.58;69.92;96117.64;108762;1250;96962;-73
2023/03/06 07:04:34;;;;;;;;;;;;;;;0.63;69.47;96118.55;109014;1251;105205;-72
2023/03/06 07:07:02;;;;;;;;;;;;;;;0.68;69.29;96120.36;108990;1250;100321;-72
2023/03/06 07:09:30;;;;;;;;;;;;;;;0.72;69.07;96108.92;109029;1250;99888;-73
2023/03/06 07:11:58;;;;;;;;;;;;;;;0.73;68.74;96104.73;108981;1249;96874;-71
2023/03/06 07:14:26;;;;;;;;;;;;;;;0.75;68.52;96100.63;108879;1250;96951;-74
2023/03/06 07:16:54;;;;;;;;;;;;;;;0.81;68.37;96104.86;109065;1249;103526;-72
2023/03/06 07:19:22;;;;;;;;;;;;;;;0.88;68.49;96103.69;109043;1250;101685;-74
2023/03/06 07:21:50;;;;;;;;;;;;;;;0.93;68.53;96096.05;109013;1251;100002;-73
2023/03/06 07:24:18;;;;;;;;;;;;;;;0.99;68.62;96104.02;108965;1251;97149;-73
2023/03/06 07:26:47;;;;;;;;;;;;;;;1.05;68.35;96104.80;109022;1250;97021;-71
2023/03/06 07:29:15;;;;;;;;;;;;;;;1.10;68.14;96109.64;108996;1250;104721;-72
2023/03/06 07:31:43;;;;;;;;;;;;;;;1.15;68.14;96112.81;108655;1251;100492;-72
2023/03/06 07:34:15;;;;;;;;;;;;;;;1.19;67.93;96116.92;109013;1250;99583;-72
2023/03/06 07:36:43;;;;;;;;;;;;;;;1.25;67.86;96116.54;108934;1250;96865;-71
2023/03/06 07:39:11;;;;;;;;;;;;;;;1.30;67.65;96122.30;109039;1249;97299;-73
2023/03/06 07:41:39;;;;;;;;;;;;;;;1.31;67.29;96121.66;108687;1251;104950;-73
2023/03/06 07:44:07;;;;;;;;;;;;;;;1.36;67.14;96124.62;108649;1249;101729;-72
2023/03/06 07:46:35;;;;;;;;;;;;;;;1.41;66.97;96122.60;109014;1250;99929;-71
2023/03/06 07:49:03;;;;;;;;;;;;;;;1.46;66.95;96119.76;108609;1251;97243;-72
2023/03/06 07:51:31;;;;;;;;;;;;;;;1.52;66.86;96120.33;108949;1250;97835;-71
2023/03/06 07:53:59;;;;;;;;;;;;;;;1.58;66.50;96120.50;109007;1251;104914;-75
2023/03/06 07:56:27;;;;;;;;;;;;;;;1.61;66.01;96125.08;108973;1250;101293;-74
2023/03/06 07:58:55;;;;;;;;;;;;;;;1.71;66.09;96132.21;108793;1250;257138;-75
2023/03/06 08:01:24;;;;;;;;;;;;;;;1.86;66.08;96131.92;109000;1250;97285;-73
2023/03/06 08:03:52;;;;;;;;;;;;;;;2.04;65.91;96130.93;108979;1249;96995;-73
2023/03/06 08:06:22;;;;;;;;;;;;;;;2.21;65.67;96132.04;109084;1249;104712;-72
2023/03/06 08:08:51;;;;;;;;;;;;;;;2.38;65.30;96127.08;109005;1250;101037;-73
2023/03/06 08:11:20;;;;;;;;;;;;;;;2.56;64.93;96126.41;108971;1250;99166;-74
2023/03/06 08:13:51;;;;;;;;;;;;;;;2.73;64.60;96122.58;108997;1250;96931;-73
2023/03/06 08:16:24;;;;;;;;;;;;;;;2.92;64.25;96121.67;108827;1249;97956;-73
2023/03/06 08:18:52;;;;;;;;;;;;;;;3.17;64.24;96125.90;109062;1249;104941;-73
2023/03/06 08:21:24;;;;;;;;;;;;;;;3.38;63.82;96124.04;109058;1249;101693;-73
2023/03/06 08:23:52;;;;;;;;;;;;;;;3.57;63.38;96124.54;108984;1250;99931;-74
2023/03/06 08:26:22;;;;;;;;;;;;;;;3.81;63.09;96124.27;109026;1251;97345;-75
2023/03/06 08:28:54;;;;;;;;;;;;;;;4.05;62.81;96122.58;109057;1250;96931;-72
2023/03/06 08:31:24;;;;;;;;;;;;;;;4.36;62.63;96123.98;109070;1251;104439;-75
2023/03/06 08:33:53;;;;;;;;;;;;;;;4.66;62.36;96117.42;109047;1250;110270;-72
2023/03/06 08:36:21;;;;;;;;;;;;;;;4.96;61.89;96112.64;108625;1251;99582;-73
2023/03/06 08:38:49;;;;;;;;;;;;;;;5.32;61.36;96113.35;108969;1250;97324;-72
2023/03/06 08:41:17;;;;;;;;;;;;;;;5.63;60.91;96115.60;109059;1250;96987;-73
2023/03/06 08:43:45;;;;;;;;;;;;;;;5.87;59.99;96112.45;109006;1250;112035;-73
2023/03/06 08:46:13;;;;;;;;;;;;;;;6.18;59.71;96111.95;109062;1251;101379;-75
2023/03/06 08:48:41;;;;;;;;;;;;;;;6.36;59.34;96108.83;108985;1250;99906;-75
2023/03/06 08:51:10;;;;;;;;;;;;;;;6.40;59.14;96113.58;109023;1251;96950;-75
2023/03/06 08:53:38;;;;;;;;;;;;;;;6.35;58.09;96112.59;108900;1250;97173;-73
2023/03/06 08:56:06;;;;;;;;;;;;;;;6.27;58.02;96115.86;109068;1249;104994;-72
2023/03/06 08:58:34;;;;;;;;;;;;;;;6.28;57.42;96111.60;109063;1250;101994;-75
2023/03/06 09:01:04;;;;;;;;;;;;;;;6.34;57.16;96113.63;108958;1250;99646;-73
2023/03/06 09:03:32;;;;;;;;;;;;;;;6.36;57.00;96118.52;109036;1250;96879;-73
2023/03/06 09:06:00;;;;;;;;;;;;;;;6.44;56.68;96115.16;109075;1250;97180;-73
2023/03/06 09:08:28;;;;;;;;;;;;;;;6.47;56.08;96112.10;109041;1250;104847;-74
2023/03/06 09:10:56;;;;;;;;;;;;;;;6.49;56.10;96113.73;108776;1251;101316;-74
2023/03/06 09:13:24;;;;;;;;;;;;;;;6.50;56.01;96115.79;108955;1250;99966;-73
2023/03/06 09:15:52;;;;;;;;;;;;;;;6.48;55.63;96113.04;108940;1250;96912;-73
2023/03/06 09:18:20;;;;;;;;;;;;;;;6.51;55.57;96119.98;109042;1251;96985;-73
2023/03/06 09:20:48;;;;;;;;;;;;;;;6.64;55.55;96116.98;109076;1250;104745;-74
2023/03/06 09:23:16;;;;;;;;;;;;;;;6.68;55.28;96117.17;109085;1251;101495;-73
2023/03/06 09:25:44;;;;;;;;;;;;;;;6.63;54.91;96116.10;109047;1250;99072;-75
2023/03/06 09:28:12;;;;;;;;;;;;;;;6.57;54.69;96114.83;108836;1250;97283;-75
2023/03/06 09:30:41;;;;;;;;;;;;;;;6.47;53.63;96110.73;109071;1251;97899;-73
2023/03/06 09:33:09;;;;;;;;;;;;;;;6.41;53.87;96108.34;109068;1250;105209;-73
2023/03/06 09:35:41;;;;;;;;;;;;;;;6.44;53.88;96109.27;109062;1250;100761;-73
2023/03/06 09:38:08;;;;;;;;;;;;;;;6.45;53.89;96108.80;108996;1250;99965;-75
2023/03/06 09:40:57;;;;;;;;;;;;;;;6.44;53.46;96107.79;108913;1251;97123;-73
2023/03/06 09:43:28;;;;;;;;;;;;;;;6.48;53.33;96102.31;108310;1258;97186;-73
2023/03/06 09:45:56;;;;;;;;;;;;;;;6.50;52.94;96100.23;108277;1259;104752;-73
2023/03/06 09:48:53;;;;;;;;;;;;;;;6.49;53.22;96095.51;108272;1259;101208;-73
2023/03/06 09:51:25;;;;;;;;;;;;;;;6.60;53.47;96096.13;107924;1265;99904;-73
2023/03/06 09:54:01;;;;;;;;;;;;;;;6.73;53.04;96092.46;107937;1265;97439;-74
2023/03/06 09:56:31;;;;;;;;;;;;;;;6.96;53.12;96087.44;107989;1265;97054;-72
2023/03/06 09:59:20;;;;;;;;;;;;;;;7.22;52.95;96083.92;107985;1265;104685;-74
2023/03/06 10:01:56;;;;;;;;;;;;;;;7.57;52.64;96077.80;107909;1265;101366;-73
2023/03/06 10:04:34;;;;;;;;;;;;;;;7.83;52.24;96072.21;107952;1265;100022;-73
2023/03/06 10:07:22;;;;;;;;;;;;;;;8.03;51.36;96066.36;107975;1265;97375;-73
2023/03/06 10:09:52;;;;;;;;;;;;;;;8.36;51.18;96061.66;107962;1265;97195;-73
2023/03/06 10:12:25;;;;;;;;;;;;;;;8.61;50.75;96059.87;107960;1265;104862;-75
2023/03/06 10:15:05;;;;;;;;;;;;;;;8.66;49.62;96058.55;107928;1265;101353;-75
2023/03/06 10:17:40;;;;;;;;;;;;;;;8.72;49.37;96051.21;107946;1265;100001;-73
2023/03/06 10:20:22;;;;;;;;;;;;;;;8.78;49.05;96047.43;107982;1262;97282;-73
2023/03/06 10:22:59;;;;;;;;;;;;;;;8.83;48.85;96044.39;108022;1262;96978;-73
2023/03/06 10:25:29;;;;;;;;;;;;;;;8.85;48.52;96041.04;107972;1261;105156;-74
2023/03/06 10:28:09;;;;;;;;;;;;;;;8.82;47.69;96037.09;108408;1254;101514;-73
2023/03/06 10:30:43;;;;;;;;;;;;;;;8.78;47.68;96036.25;108740;1251;100562;-73
2023/03/06 10:33:29;;;;;;;;;;;;;;;8.93;47.55;96029.65;108876;1251;96887;-73
2023/03/06 10:35:57;;;;;;;;;;;;;;;9.17;47.18;96031.20;108834;1251;97486;-73
2023/03/06 10:38:27;;;;;;;;;;;;;;;9.28;46.57;96026.39;108881;1251;105076;-73
2023/03/06 10:40:55;;;;;;;;;;;;;;;9.39;46.62;96022.05;108860;1250;100886;-73
2023/03/06 10:43:23;;;;;;;;;;;;;;;9.49;45.75;96018.20;108632;1251;98452;-73
2023/03/06 10:45:52;;;;;;;;;;;;;;;9.66;45.45;96014.52;108865;1254;96884;-73
2023/03/06 10:48:26;;;;;;;;;;;;;;;9.85;44.89;96008.27;108869;1251;96949;-73
2023/03/06 10:51:09;;;;;;;;;;;;;;;10.01;44.37;96005.34;108965;1251;104866;-74
2023/03/06 10:53:48;;;;;;;;;;;;;;;10.24;44.49;96002.06;108886;1251;101141;-73
2023/03/06 10:56:26;;;;;;;;;;;;;;;10.45;43.97;96002.90;108894;1251;99943;-73
2023/03/06 10:59:07;;;;;;;;;;;;;;;10.55;43.47;95994.85;108719;1251;96971;-74
2023/03/06 11:01:35;;;;;;;;;;;;;;;10.70;43.43;95990.19;108667;1251;97121;-74
2023/03/06 11:04:22;;;;;;;;;;;;;;;10.90;43.60;95988.86;108885;1251;104935;-73
2023/03/06 11:07:09;;;;;;;;;;;;;;;10.99;43.35;95990.63;108876;1251;101706;-73
2023/03/06 11:09:37;;;;;;;;;;;;;;;11.02;42.81;95990.02;108862;1251;99980;-73
2023/03/06 11:12:22;;;;;;;;;;;;;;;10.88;42.03;95989.86;108891;1251;96953;-73
2023/03/06 11:15:19;;;;;;;;;;;;;;;10.52;42.27;95990.16;108884;1251;97097;-74
2023/03/06 11:17:49;;;;;;;;;;;;;;;10.28;41.99;95987.56;108307;1257;104803;-73
2023/03/06 11:20:23;;;;;;;;;;;;;;;10.15;42.30;95979.16;108342;1256;101299;-74
2023/03/06 11:22:51;;;;;;;;;;;;;;;10.10;42.52;95974.11;108365;1257;99972;-73
2023/03/06 11:25:21;;;;;;;;;;;;;;;10.24;41.76;95969.37;108333;1257;96950;-74
2023/03/06 11:27:57;;;;;;;;;;;;;;;10.35;41.41;95960.23;108384;1260;97024;-73
2023/03/06 11:30:30;;;;;;;;;;;;;;;10.38;41.12;95954.19;108343;1260;104676;-74
2023/03/06 11:33:05;;;;;;;;;;;;;;;10.42;41.16;95954.36;108237;1257;101507;-73
2023/03/06 11:35:41;;;;;;;;;;;;;;;10.54;41.47;95960.20;108332;1257;99967;-73
2023/03/06 11:38:17;;;;;;;;;;;;;;;10.60;41.07;95961.82;108356;1256;97044;-73
2023/03/06 11:40:56;;;;;;;;;;;;;;;10.58;40.66;95955.89;108417;1257;97080;-74
2023/03/06 11:43:30;;;;;;;;;;;;;;;10.46;40.27;95949.61;108326;1257;104442;-73
2023/03/06 11:46:02;;;;;;;;;;;;;;;10.24;39.81;95949.42;108374;1257;100328;-73
2023/03/06 11:48:39;;;;;;;;;;;;;;;10.09;39.49;95946.88;108326;1257;99945;-73
2023/03/06 11:51:14;;;;;;;;;;;;;;;9.92;39.36;95940.36;108404;1258;97056;-73
2023/03/06 11:53:42;;;;;;;;;;;;;;;9.83;40.07;95939.70;108362;1251;97917;-73
2023/03/06 11:56:21;;;;;;;;;;;;;;;9.79;39.86;95938.13;108850;1251;104465;-74
2023/03/06 11:58:52;;;;;;;;;;;;;;;9.73;39.83;95934.41;108911;1251;101452;-73
2023/03/06 12:01:38;;;;;;;;;;;;;;;9.64;39.66;95933.27;108885;1251;100090;-76
2023/03/06 12:04:25;;;;;;;;;;;;;;;9.43;39.10;95930.06;108857;1251;97153;-73
2023/03/06 12:07:08;;;;;;;;;;;;;;;9.27;39.32;95930.52;108908;1251;96957;-74
2023/03/06 12:09:46;;;;;;;;;;;;;;;9.01;39.15;95919.65;108850;1256;104785;-74
2023/03/06 12:12:22;;;;;;;;;;;;;;;8.84;39.50;95919.98;108898;1255;100229;-74
2023/03/06 12:15:16;;;;;;;;;;;;;;;8.64;39.50;95924.66;108630;1257;98918;-73
2023/03/06 12:17:53;;;;;;;;;;;;;;;8.43;39.02;95919.10;108872;1251;97009;-75
2023/03/06 12:20:24;;;;;;;;;;;;;;;8.35;39.08;95919.40;108852;1251;97197;-74
2023/03/06 12:22:53;;;;;;;;;;;;;;;8.26;39.14;95919.34;108889;1252;104925;-75
2023/03/06 12:25:33;;;;;;;;;;;;;;;8.23;38.88;95910.70;108872;1251;100216;-76
2023/03/06 12:28:13;;;;;;;;;;;;;;;8.18;38.82;95905.88;108864;1251;99904;-74
2023/03/06 12:30:47;;;;;;;;;;;;;;;8.11;38.74;95905.20;108844;1251;96906;-73
2023/03/06 12:33:22;;;;;;;;;;;;;;;8.07;38.95;95901.95;108581;1251;97074;-73
2023/03/06 12:35:50;;;;;;;;;;;;;;;8.07;39.15;95901.23;108584;1251;104827;-73
2023/03/06 12:38:21;;;;;;;;;;;;;;;8.00;38.82;95898.61;108924;1251;101359;-73
2023/03/06 12:40:55;;;;;;;;;;;;;;;8.00;38.45;95894.67;108805;1251;100068;-75
2023/03/06 12:43:42;;;;;;;;;;;;;;;8.06;38.51;95895.20;108812;1251;96883;-74
2023/03/06 12:46:15;;;;;;;;;;;;;;;8.04;38.56;95892.42;108588;1251;97448;-74
2023/03/06 12:48:45;;;;;;;;;;;;;;;7.97;38.57;95889.45;108862;1251;104790;-73
2023/03/06 12:51:15;;;;;;;;;;;;;;;7.88;38.48;95884.61;108878;1251;100396;-75
2023/03/06 12:53:44;;;;;;;;;;;;;;;7.84;38.56;95887.25;108789;1251;98432;-73